Fort Wayne International Airport
KFWA : now visible

Airfield :











YOU CAN JOIN US ON...

 
LOGIN :

Register | Disclaimer

   EN    FR    IT 

 









Legend :    VFR   Marginal VFR   IFR   Intensive IFR   Very Intensive IFR
Visi :
Ceiling :
>= 8 km
>= 3000ft
5 to 8 km
1000 to 3000 ft
1500m to 5 km
500 to 1000 ft
800 to 1500m
200 to 500 ft
< 800m
< 200 ft
Symbols :   Thunderstorms  Fog  Heavy snow  Heavy precipitations  Wind > 20 kt






- Airport Elevation : 814 ft
- IATA code : FWA


KFWA - Fort Wayne International

CURRENT METAR :
  • 190854Z 19011KT 10SM FEW060 BKN160 OVC250 22/21 A2983 RMK AO2 SLP095 OCNL LTGIC DSNT S T02170206 50002 $

EXPIRED METARs :
  • 190754Z 20008KT 10SM FEW031 FEW048 SCT170 BKN250 22/21 A2985 RMK AO2 SLP101 T02170206 $
  • 190654Z 20010KT 10SM FEW027 FEW055 BKN170 22/21 A2985 RMK AO2 SLP102 OCNL LTGIC DSNT S-SW CB DSNT S-SW MOV SE T02220211 $

TAF KFWA
Valid from the 19 at 06:00 until the 20 at 06:00 UTC


190520Z 1906/2006 24003KT P6SM VCSH SCT200
FM191000 25005KT P6SM -SHRA VCTS BKN050CB
FM191500 25009KT P6SM BKN100
FM191800 25012KT P6SM VCTS BKN050CB
FM200200 25006KT P6SM SCT050
KZAU FIR / North America



MET'MAP, your aeronautical weather chart ! - Copyright ORBIFLY December 2007 - Disclaimer

ORBIFLY MET'MAP TEAM :

Programming & Development : Alexandra Zaïnal
Concept & original design : Baudouin d'Aumeries
Assistance for programming : Marc-Olivier Méhu
Technical & hardware support : Manuel Goepfert

Contact : metmap@orbifly.com




SOURCES & CREDITS :

   NOAA       Earth
Advisory